Huvudsida
METAR-TAF:

METAR-TAF

Flygplatser :

Skaraborgs flygflottilj

Såtenäs, Sverige

latitud: 58-26N, longitud: 012-42E, höjd: 54 m

Aktuellt väderrapport

Denna rapport gjordes för 40 minuter sedan, klockan 09:20 UTC
Vind 13 kt från sydväst
Temperatur 5°C
Fuktighet 100%
Tryck 1018 hPa
Sikt: 4000 m
Brutna moln på en höjd av 300 ft
lätt duggregn

METAR: ESIB 200920Z 23013KT 4000 -DZ BKN003 05/05 Q1018

Tid: 11:00 (10:00 UTC)

Väderprognos

Denna rapport gjordes för 1 timme och 30 minuter sedan, klockan 08:30 UTC
Prognos gäller från 20 kl. 09 UTC till 20 kl. 15 UTC
Vind 15 kt från väst/sydväst i byarna ända upp till 25 kt
Sikt 10 km eller mer
Brutna moln på en höjd av 600 ft
Temporärt
från 20 kl. 09 UTC till 20 kl. 11 UTC
Sikt: 2000 m
Brutna moln på en höjd av 300 ft
regn, duggregn
Blir
från 20 kl. 10 UTC till 20 kl. 12 UTC
Brutna moln på en höjd av 1500 ft

TAF: ESIB 200830Z 2009/2015 24015G25KT 9999 BKN006 TEMPO 2009/2011 2000 RADZ BKN003 BECMG 2010/2012 BKN015 RMK MIL

Aktuella väderrapporter och prognoser från 4000 flygplatser (METAR- och TAF-rapporter).

De tillgängliga stationerna syns som gula och röda prickar på kartan.

För musen över prickarna för att se namnen på stationerna.

Klicka sedan för att få väderrapporter och prognoser.

För att ändra kartan: Klicka på de gröna knapparna med ett svart kors på för att zooma in; den gröna knappen med ett streck på för att zooma ut; eller på de gröna pilarna för angränsande kartor.


METAR-TAF: